Edmondson, Arkansas
Current Conditions -  °F | °C
As of 9:53 PM on Sunday 23 Nov 2014 (Local Time) from KAWM Reporting Station
Clear Clear  
Wind Chill: 61°   Ceiling: Unl
Heat Index: 61°   Visibility: 10mi
Dew Point: 60°   Wind: 14mph
Humidity: 97%   Direction: 200°SSW
Pressure: 29.43"   Gusts: NA
Location:  35.11°N, 90.31°W
Report Text: KAWM 240353Z AUTO 20012KT 10SM CLR 16/16 A2943 RMK AO2 SLP962 T01610156
Loading
Personal Weather Stations






























Interactive Weather Map New forecast layout! Learn more

10-Day Weather Forecast

Advertisements
Track Severe Weather on mobile